sensor_id;sensor_type;location;lat;lon;timestamp;temperature;humidity
13721;DHT22;6932;51.438;5.470;2023-04-24T00:01:14;17.40;86.40
13721;DHT22;6932;51.438;5.470;2023-04-24T00:03:40;17.30;86.40
13721;DHT22;6932;51.438;5.470;2023-04-24T00:06:07;17.30;86.40
13721;DHT22;6932;51.438;5.470;2023-04-24T00:08:35;17.30;86.30
13721;DHT22;6932;51.438;5.470;2023-04-24T00:11:01;17.30;87.00
13721;DHT22;6932;51.438;5.470;2023-04-24T00:13:27;17.30;86.30
13721;DHT22;6932;51.438;5.470;2023-04-24T00:15:54;17.30;86.30
13721;DHT22;6932;51.438;5.470;2023-04-24T00:18:20;17.30;86.30
13721;DHT22;6932;51.438;5.470;2023-04-24T00:20:46;17.30;86.30
13721;DHT22;6932;51.438;5.470;2023-04-24T00:23:12;17.30;86.20
13721;DHT22;6932;51.438;5.470;2023-04-24T00:25:38;17.20;86.20
13721;DHT22;6932;51.438;5.470;2023-04-24T00:28:05;17.20;86.10
13721;DHT22;6932;51.438;5.470;2023-04-24T00:30:31;17.20;86.00
13721;DHT22;6932;51.438;5.470;2023-04-24T00:32:57;17.20;86.00
13721;DHT22;6932;51.438;5.470;2023-04-24T00:35:23;17.20;86.00
13721;DHT22;6932;51.438;5.470;2023-04-24T00:37:49;17.20;86.00
13721;DHT22;6932;51.438;5.470;2023-04-24T00:40:15;17.20;86.00
13721;DHT22;6932;51.438;5.470;2023-04-24T00:42:41;17.20;86.00
13721;DHT22;6932;51.438;5.470;2023-04-24T00:45:08;17.20;86.00
13721;DHT22;6932;51.438;5.470;2023-04-24T00:47:34;17.20;86.10
13721;DHT22;6932;51.438;5.470;2023-04-24T00:50:05;17.20;86.10
13721;DHT22;6932;51.438;5.470;2023-04-24T00:52:31;17.20;86.00
13721;DHT22;6932;51.438;5.470;2023-04-24T00:54:58;17.20;86.00
13721;DHT22;6932;51.438;5.470;2023-04-24T00:57:24;17.20;86.00
13721;DHT22;6932;51.438;5.470;2023-04-24T00:59:51;17.20;86.00
13721;DHT22;6932;51.438;5.470;2023-04-24T01:02:17;17.10;85.90
13721;DHT22;6932;51.438;5.470;2023-04-24T01:04:44;17.10;86.00
13721;DHT22;6932;51.438;5.470;2023-04-24T01:07:10;17.10;86.00
13721;DHT22;6932;51.438;5.470;2023-04-24T01:09:40;17.10;86.00
13721;DHT22;6932;51.438;5.470;2023-04-24T01:12:09;17.10;86.00
13721;DHT22;6932;51.438;5.470;2023-04-24T01:14:36;17.10;86.00
13721;DHT22;6932;51.438;5.470;2023-04-24T01:17:03;17.10;86.10
13721;DHT22;6932;51.438;5.470;2023-04-24T01:19:29;17.10;86.10
13721;DHT22;6932;51.438;5.470;2023-04-24T01:21:58;17.10;86.20
13721;DHT22;6932;51.438;5.470;2023-04-24T01:24:27;17.10;86.20
13721;DHT22;6932;51.438;5.470;2023-04-24T01:26:53;17.00;86.20
13721;DHT22;6932;51.438;5.470;2023-04-24T01:29:20;17.10;86.20
13721;DHT22;6932;51.438;5.470;2023-04-24T01:31:46;17.00;86.20
13721;DHT22;6932;51.438;5.470;2023-04-24T01:34:12;17.00;86.80
13721;DHT22;6932;51.438;5.470;2023-04-24T01:36:39;17.00;86.90
13721;DHT22;6932;51.438;5.470;2023-04-24T01:39:07;17.00;86.30
13721;DHT22;6932;51.438;5.470;2023-04-24T01:41:33;17.00;86.20
13721;DHT22;6932;51.438;5.470;2023-04-24T01:43:59;17.00;86.20
13721;DHT22;6932;51.438;5.470;2023-04-24T01:46:25;17.00;86.20
13721;DHT22;6932;51.438;5.470;2023-04-24T01:48:51;17.00;86.20
13721;DHT22;6932;51.438;5.470;2023-04-24T01:51:17;17.00;86.20
13721;DHT22;6932;51.438;5.470;2023-04-24T01:53:43;17.00;86.20
13721;DHT22;6932;51.438;5.470;2023-04-24T01:56:09;17.00;86.20
13721;DHT22;6932;51.438;5.470;2023-04-24T01:58:35;17.00;86.10
13721;DHT22;6932;51.438;5.470;2023-04-24T02:01:01;17.00;86.10
13721;DHT22;6932;51.438;5.470;2023-04-24T02:03:27;17.00;86.10
13721;DHT22;6932;51.438;5.470;2023-04-24T02:05:53;17.00;86.10
13721;DHT22;6932;51.438;5.470;2023-04-24T02:08:19;17.00;86.10
13721;DHT22;6932;51.438;5.470;2023-04-24T02:10:44;17.00;86.00
13721;DHT22;6932;51.438;5.470;2023-04-24T02:13:10;17.00;86.00
13721;DHT22;6932;51.438;5.470;2023-04-24T02:15:36;17.00;85.80
13721;DHT22;6932;51.438;5.470;2023-04-24T02:18:02;16.90;85.80
13721;DHT22;6932;51.438;5.470;2023-04-24T02:20:28;17.00;85.70
13721;DHT22;6932;51.438;5.470;2023-04-24T02:22:53;17.00;85.70
13721;DHT22;6932;51.438;5.470;2023-04-24T02:25:20;16.90;85.70
13721;DHT22;6932;51.438;5.470;2023-04-24T02:28:00;17.00;85.70
13721;DHT22;6932;51.438;5.470;2023-04-24T02:30:25;16.90;85.60
13721;DHT22;6932;51.438;5.470;2023-04-24T02:32:51;16.90;85.50
13721;DHT22;6932;51.438;5.470;2023-04-24T02:35:17;17.00;85.60
13721;DHT22;6932;51.438;5.470;2023-04-24T02:37:43;17.00;85.50
13721;DHT22;6932;51.438;5.470;2023-04-24T02:40:09;17.00;85.50
13721;DHT22;6932;51.438;5.470;2023-04-24T02:42:34;17.00;85.40
13721;DHT22;6932;51.438;5.470;2023-04-24T02:45:09;17.00;85.40
13721;DHT22;6932;51.438;5.470;2023-04-24T02:47:35;17.00;85.40
13721;DHT22;6932;51.438;5.470;2023-04-24T02:50:02;17.00;85.30
13721;DHT22;6932;51.438;5.470;2023-04-24T02:52:28;17.00;85.30
13721;DHT22;6932;51.438;5.470;2023-04-24T02:54:54;17.00;85.20
13721;DHT22;6932;51.438;5.470;2023-04-24T02:57:20;17.00;85.20
13721;DHT22;6932;51.438;5.470;2023-04-24T02:59:46;17.00;85.10
13721;DHT22;6932;51.438;5.470;2023-04-24T03:02:11;16.90;85.10
13721;DHT22;6932;51.438;5.470;2023-04-24T03:04:37;17.00;85.00
13721;DHT22;6932;51.438;5.470;2023-04-24T03:07:03;16.90;85.00
13721;DHT22;6932;51.438;5.470;2023-04-24T03:09:29;17.00;85.00
13721;DHT22;6932;51.438;5.470;2023-04-24T03:11:55;17.00;84.90
13721;DHT22;6932;51.438;5.470;2023-04-24T03:14:21;16.90;85.50
13721;DHT22;6932;51.438;5.470;2023-04-24T03:16:47;17.00;84.80
13721;DHT22;6932;51.438;5.470;2023-04-24T03:19:13;16.90;84.80
13721;DHT22;6932;51.438;5.470;2023-04-24T03:21:39;16.90;84.70
13721;DHT22;6932;51.438;5.470;2023-04-24T03:24:08;16.90;84.70
13721;DHT22;6932;51.438;5.470;2023-04-24T03:26:34;16.90;84.70
13721;DHT22;6932;51.438;5.470;2023-04-24T03:29:01;16.90;84.70
13721;DHT22;6932;51.438;5.470;2023-04-24T03:31:27;16.90;84.60
13721;DHT22;6932;51.438;5.470;2023-04-24T03:33:52;16.90;84.60
13721;DHT22;6932;51.438;5.470;2023-04-24T03:36:18;16.90;84.60
13721;DHT22;6932;51.438;5.470;2023-04-24T03:38:44;16.90;84.60
13721;DHT22;6932;51.438;5.470;2023-04-24T03:41:10;16.90;85.10
13721;DHT22;6932;51.438;5.470;2023-04-24T03:43:37;16.90;84.50
13721;DHT22;6932;51.438;5.470;2023-04-24T03:46:03;16.80;84.40
13721;DHT22;6932;51.438;5.470;2023-04-24T03:48:29;16.90;84.50
13721;DHT22;6932;51.438;5.470;2023-04-24T03:50:55;16.90;84.40
13721;DHT22;6932;51.438;5.470;2023-04-24T03:53:21;16.90;84.40
13721;DHT22;6932;51.438;5.470;2023-04-24T03:55:47;16.90;84.40
13721;DHT22;6932;51.438;5.470;2023-04-24T03:58:12;16.90;84.90
13721;DHT22;6932;51.438;5.470;2023-04-24T04:00:41;16.90;84.30
13721;DHT22;6932;51.438;5.470;2023-04-24T04:03:07;16.80;84.20
13721;DHT22;6932;51.438;5.470;2023-04-24T04:05:32;16.80;84.20
13721;DHT22;6932;51.438;5.470;2023-04-24T04:07:58;16.80;84.20
13721;DHT22;6932;51.438;5.470;2023-04-24T04:10:24;16.90;84.30
13721;DHT22;6932;51.438;5.470;2023-04-24T04:12:49;16.80;84.20
13721;DHT22;6932;51.438;5.470;2023-04-24T04:15:15;16.80;84.20
13721;DHT22;6932;51.438;5.470;2023-04-24T04:17:41;16.80;84.20
13721;DHT22;6932;51.438;5.470;2023-04-24T04:20:07;16.80;84.20
13721;DHT22;6932;51.438;5.470;2023-04-24T04:22:35;16.80;84.20
13721;DHT22;6932;51.438;5.470;2023-04-24T04:25:02;16.80;84.20
13721;DHT22;6932;51.438;5.470;2023-04-24T04:27:29;16.80;84.20
13721;DHT22;6932;51.438;5.470;2023-04-24T04:29:58;16.80;84.40
13721;DHT22;6932;51.438;5.470;2023-04-24T04:32:33;16.80;84.40
13721;DHT22;6932;51.438;5.470;2023-04-24T04:35:02;16.80;84.40
13721;DHT22;6932;51.438;5.470;2023-04-24T04:37:32;16.80;84.40
13721;DHT22;6932;51.438;5.470;2023-04-24T04:39:59;16.80;84.50
13721;DHT22;6932;51.438;5.470;2023-04-24T04:42:28;16.70;84.60
13721;DHT22;6932;51.438;5.470;2023-04-24T04:44:54;16.70;84.70
13721;DHT22;6932;51.438;5.470;2023-04-24T04:47:22;16.70;84.70
13721;DHT22;6932;51.438;5.470;2023-04-24T04:49:49;16.80;84.80
13721;DHT22;6932;51.438;5.470;2023-04-24T04:52:16;16.70;84.90
13721;DHT22;6932;51.438;5.470;2023-04-24T04:54:42;16.70;85.00
13721;DHT22;6932;51.438;5.470;2023-04-24T04:57:08;16.70;85.10
13721;DHT22;6932;51.438;5.470;2023-04-24T04:59:34;16.70;85.20
13721;DHT22;6932;51.438;5.470;2023-04-24T05:02:00;16.70;85.20
13721;DHT22;6932;51.438;5.470;2023-04-24T05:04:26;16.70;85.30
13721;DHT22;6932;51.438;5.470;2023-04-24T05:06:52;16.70;85.40
13721;DHT22;6932;51.438;5.470;2023-04-24T05:09:18;16.60;85.40
13721;DHT22;6932;51.438;5.470;2023-04-24T05:11:44;16.60;85.50
13721;DHT22;6932;51.438;5.470;2023-04-24T05:14:10;16.60;86.10
13721;DHT22;6932;51.438;5.470;2023-04-24T05:16:38;16.60;85.70
13721;DHT22;6932;51.438;5.470;2023-04-24T05:19:04;16.60;85.70
13721;DHT22;6932;51.438;5.470;2023-04-24T05:21:30;16.60;85.70
13721;DHT22;6932;51.438;5.470;2023-04-24T05:23:56;16.60;85.70
13721;DHT22;6932;51.438;5.470;2023-04-24T05:26:22;16.60;85.80
13721;DHT22;6932;51.438;5.470;2023-04-24T05:28:48;16.50;85.90
13721;DHT22;6932;51.438;5.470;2023-04-24T05:31:15;16.60;86.00
13721;DHT22;6932;51.438;5.470;2023-04-24T05:33:43;16.50;85.90
13721;DHT22;6932;51.438;5.470;2023-04-24T05:36:08;16.60;86.00
13721;DHT22;6932;51.438;5.470;2023-04-24T05:38:34;16.50;86.00
13721;DHT22;6932;51.438;5.470;2023-04-24T05:41:00;16.60;86.00
13721;DHT22;6932;51.438;5.470;2023-04-24T05:43:25;16.50;86.00
13721;DHT22;6932;51.438;5.470;2023-04-24T05:45:51;16.50;86.10
13721;DHT22;6932;51.438;5.470;2023-04-24T05:48:18;16.50;86.70
13721;DHT22;6932;51.438;5.470;2023-04-24T05:50:44;16.50;86.10
13721;DHT22;6932;51.438;5.470;2023-04-24T05:53:10;16.50;86.00
13721;DHT22;6932;51.438;5.470;2023-04-24T05:55:36;16.50;86.00
13721;DHT22;6932;51.438;5.470;2023-04-24T05:58:02;16.50;86.00
13721;DHT22;6932;51.438;5.470;2023-04-24T06:00:28;16.40;85.90
13721;DHT22;6932;51.438;5.470;2023-04-24T06:02:54;16.40;85.90
13721;DHT22;6932;51.438;5.470;2023-04-24T06:05:20;16.40;85.90
13721;DHT22;6932;51.438;5.470;2023-04-24T06:07:46;16.40;85.90
13721;DHT22;6932;51.438;5.470;2023-04-24T06:10:13;16.40;85.90
13721;DHT22;6932;51.438;5.470;2023-04-24T06:12:39;16.40;86.00
13721;DHT22;6932;51.438;5.470;2023-04-24T06:15:05;16.30;86.60
13721;DHT22;6932;51.438;5.470;2023-04-24T06:17:32;16.30;86.10
13721;DHT22;6932;51.438;5.470;2023-04-24T06:19:58;16.30;86.20
13721;DHT22;6932;51.438;5.470;2023-04-24T06:22:23;16.30;86.20
13721;DHT22;6932;51.438;5.470;2023-04-24T06:24:49;16.30;87.00
13721;DHT22;6932;51.438;5.470;2023-04-24T06:27:15;16.30;86.40
13721;DHT22;6932;51.438;5.470;2023-04-24T06:29:41;16.30;86.60
13721;DHT22;6932;51.438;5.470;2023-04-24T06:32:06;16.30;86.60
13721;DHT22;6932;51.438;5.470;2023-04-24T06:34:33;16.30;86.70
13721;DHT22;6932;51.438;5.470;2023-04-24T06:37:00;16.30;86.80
13721;DHT22;6932;51.438;5.470;2023-04-24T06:39:25;16.30;86.80
13721;DHT22;6932;51.438;5.470;2023-04-24T06:41:51;16.30;86.80
13721;DHT22;6932;51.438;5.470;2023-04-24T06:44:17;16.30;86.90
13721;DHT22;6932;51.438;5.470;2023-04-24T06:46:43;16.30;87.00
13721;DHT22;6932;51.438;5.470;2023-04-24T06:49:09;16.30;87.00
13721;DHT22;6932;51.438;5.470;2023-04-24T06:51:35;16.30;87.00
13721;DHT22;6932;51.438;5.470;2023-04-24T06:54:00;16.30;87.10
13721;DHT22;6932;51.438;5.470;2023-04-24T06:56:26;16.30;87.10
13721;DHT22;6932;51.438;5.470;2023-04-24T06:58:54;16.30;87.10
13721;DHT22;6932;51.438;5.470;2023-04-24T07:01:20;16.30;87.20
13721;DHT22;6932;51.438;5.470;2023-04-24T07:03:45;16.30;87.20
13721;DHT22;6932;51.438;5.470;2023-04-24T07:06:11;16.30;87.20
13721;DHT22;6932;51.438;5.470;2023-04-24T07:08:38;16.30;87.20
13721;DHT22;6932;51.438;5.470;2023-04-24T07:11:04;16.30;87.20
13721;DHT22;6932;51.438;5.470;2023-04-24T07:13:30;16.30;87.20
13721;DHT22;6932;51.438;5.470;2023-04-24T07:15:55;16.30;87.20
13721;DHT22;6932;51.438;5.470;2023-04-24T07:18:22;16.30;87.20
13721;DHT22;6932;51.438;5.470;2023-04-24T07:20:48;16.30;87.20
13721;DHT22;6932;51.438;5.470;2023-04-24T07:23:15;16.30;87.20
13721;DHT22;6932;51.438;5.470;2023-04-24T07:25:42;16.30;87.20
13721;DHT22;6932;51.438;5.470;2023-04-24T07:28:08;16.30;87.20
13721;DHT22;6932;51.438;5.470;2023-04-24T07:30:33;16.30;87.30
13721;DHT22;6932;51.438;5.470;2023-04-24T07:32:59;16.30;88.00
13721;DHT22;6932;51.438;5.470;2023-04-24T07:35:28;16.30;87.50
13721;DHT22;6932;51.438;5.470;2023-04-24T07:37:54;16.30;87.60
13721;DHT22;6932;51.438;5.470;2023-04-24T07:44:23;16.20;87.60
13721;DHT22;6932;51.438;5.470;2023-04-24T07:46:49;16.20;87.40
13721;DHT22;6932;51.438;5.470;2023-04-24T07:49:15;16.20;87.30
13721;DHT22;6932;51.438;5.470;2023-04-24T07:51:40;16.20;87.20
13721;DHT22;6932;51.438;5.470;2023-04-24T07:54:06;16.20;87.20
13721;DHT22;6932;51.438;5.470;2023-04-24T07:56:33;16.20;87.10
13721;DHT22;6932;51.438;5.470;2023-04-24T07:58:59;16.20;87.00
13721;DHT22;6932;51.438;5.470;2023-04-24T08:01:26;16.20;87.00
13721;DHT22;6932;51.438;5.470;2023-04-24T08:03:52;16.20;87.00
13721;DHT22;6932;51.438;5.470;2023-04-24T08:06:18;16.20;87.60
13721;DHT22;6932;51.438;5.470;2023-04-24T08:08:43;16.10;87.00
13721;DHT22;6932;51.438;5.470;2023-04-24T08:11:09;16.20;87.10
13721;DHT22;6932;51.438;5.470;2023-04-24T08:13:35;16.00;87.60
13721;DHT22;6932;51.438;5.470;2023-04-24T08:16:01;16.00;88.00
13721;DHT22;6932;51.438;5.470;2023-04-24T08:18:27;16.00;87.20
13721;DHT22;6932;51.438;5.470;2023-04-24T08:20:53;16.00;87.20
13721;DHT22;6932;51.438;5.470;2023-04-24T08:23:18;15.90;87.40
13721;DHT22;6932;51.438;5.470;2023-04-24T08:25:44;15.80;87.80
13721;DHT22;6932;51.438;5.470;2023-04-24T08:28:10;15.60;88.10
13721;DHT22;6932;51.438;5.470;2023-04-24T08:30:36;15.60;88.60
13721;DHT22;6932;51.438;5.470;2023-04-24T08:33:03;15.50;89.20
13721;DHT22;6932;51.438;5.470;2023-04-24T08:35:29;15.50;89.70
13721;DHT22;6932;51.438;5.470;2023-04-24T08:37:55;15.50;89.90
13721;DHT22;6932;51.438;5.470;2023-04-24T08:40:29;15.50;90.00
13721;DHT22;6932;51.438;5.470;2023-04-24T08:43:00;15.60;90.00
13721;DHT22;6932;51.438;5.470;2023-04-24T08:45:26;15.60;89.90
13721;DHT22;6932;51.438;5.470;2023-04-24T08:47:52;15.70;89.90
13721;DHT22;6932;51.438;5.470;2023-04-24T08:50:23;15.70;89.80
13721;DHT22;6932;51.438;5.470;2023-04-24T08:52:51;15.80;89.70
13721;DHT22;6932;51.438;5.470;2023-04-24T08:55:22;15.80;89.60
13721;DHT22;6932;51.438;5.470;2023-04-24T08:57:51;15.90;89.60
13721;DHT22;6932;51.438;5.470;2023-04-24T09:00:20;16.00;89.70
13721;DHT22;6932;51.438;5.470;2023-04-24T09:02:49;16.00;89.70
13721;DHT22;6932;51.438;5.470;2023-04-24T09:05:17;16.00;89.70
13721;DHT22;6932;51.438;5.470;2023-04-24T09:07:45;16.10;89.60
13721;DHT22;6932;51.438;5.470;2023-04-24T09:10:16;16.20;89.40
13721;DHT22;6932;51.438;5.470;2023-04-24T09:12:42;16.20;88.90
13721;DHT22;6932;51.438;5.470;2023-04-24T09:15:09;16.30;88.40
13721;DHT22;6932;51.438;5.470;2023-04-24T09:17:36;16.30;87.80
13721;DHT22;6932;51.438;5.470;2023-04-24T09:20:02;16.30;87.30
13721;DHT22;6932;51.438;5.470;2023-04-24T09:22:30;16.30;86.80
13721;DHT22;6932;51.438;5.470;2023-04-24T09:25:04;16.30;86.70
13721;DHT22;6932;51.438;5.470;2023-04-24T09:27:34;16.30;86.50
13721;DHT22;6932;51.438;5.470;2023-04-24T09:30:01;16.40;86.40
13721;DHT22;6932;51.438;5.470;2023-04-24T09:32:28;16.40;86.30
13721;DHT22;6932;51.438;5.470;2023-04-24T09:35:10;16.40;86.90
13721;DHT22;6932;51.438;5.470;2023-04-24T09:37:38;16.40;86.20
13721;DHT22;6932;51.438;5.470;2023-04-24T09:40:17;16.40;86.10
13721;DHT22;6932;51.438;5.470;2023-04-24T09:42:56;16.40;86.00
13721;DHT22;6932;51.438;5.470;2023-04-24T09:45:37;16.40;85.80
13721;DHT22;6932;51.438;5.470;2023-04-24T09:48:04;16.50;85.70
13721;DHT22;6932;51.438;5.470;2023-04-24T09:50:32;16.50;85.70
13721;DHT22;6932;51.438;5.470;2023-04-24T09:53:03;16.50;85.70
13721;DHT22;6932;51.438;5.470;2023-04-24T09:55:45;16.50;85.50
13721;DHT22;6932;51.438;5.470;2023-04-24T09:58:13;16.50;85.40
13721;DHT22;6932;51.438;5.470;2023-04-24T10:00:39;16.50;85.00
13721;DHT22;6932;51.438;5.470;2023-04-24T10:03:05;16.50;84.60
13721;DHT22;6932;51.438;5.470;2023-04-24T10:05:33;16.50;84.20
13721;DHT22;6932;51.438;5.470;2023-04-24T10:10:34;16.50;84.00
13721;DHT22;6932;51.438;5.470;2023-04-24T10:13:04;16.60;84.00
13721;DHT22;6932;51.438;5.470;2023-04-24T10:15:30;16.60;83.80
13721;DHT22;6932;51.438;5.470;2023-04-24T10:17:58;16.70;83.40
13721;DHT22;6932;51.438;5.470;2023-04-24T10:20:26;16.70;83.10
13721;DHT22;6932;51.438;5.470;2023-04-24T10:22:58;16.80;82.80
13721;DHT22;6932;51.438;5.470;2023-04-24T10:25:30;16.80;82.50
13721;DHT22;6932;51.438;5.470;2023-04-24T10:27:58;16.90;82.10
13721;DHT22;6932;51.438;5.470;2023-04-24T10:30:30;16.90;81.70
13721;DHT22;6932;51.438;5.470;2023-04-24T10:33:16;17.00;81.60
13721;DHT22;6932;51.438;5.470;2023-04-24T10:35:45;17.10;81.40
13721;DHT22;6932;51.438;5.470;2023-04-24T10:38:16;17.10;81.10
13721;DHT22;6932;51.438;5.470;2023-04-24T10:40:50;17.10;80.80
13721;DHT22;6932;51.438;5.470;2023-04-24T10:43:17;17.20;80.60
13721;DHT22;6932;51.438;5.470;2023-04-24T10:46:03;17.20;80.40
13721;DHT22;6932;51.438;5.470;2023-04-24T10:48:31;17.20;80.20
13721;DHT22;6932;51.438;5.470;2023-04-24T10:50:58;17.20;80.10
13721;DHT22;6932;51.438;5.470;2023-04-24T10:53:30;17.20;80.00
13721;DHT22;6932;51.438;5.470;2023-04-24T10:56:04;17.20;79.60
13721;DHT22;6932;51.438;5.470;2023-04-24T10:58:51;17.20;79.50
13721;DHT22;6932;51.438;5.470;2023-04-24T11:01:29;17.20;79.80
13721;DHT22;6932;51.438;5.470;2023-04-24T11:04:03;17.20;79.40
13721;DHT22;6932;51.438;5.470;2023-04-24T11:06:37;17.20;79.30
13721;DHT22;6932;51.438;5.470;2023-04-24T11:09:07;17.20;79.00
13721;DHT22;6932;51.438;5.470;2023-04-24T11:11:38;17.20;79.00
13721;DHT22;6932;51.438;5.470;2023-04-24T11:14:10;17.20;78.80
13721;DHT22;6932;51.438;5.470;2023-04-24T11:16:51;17.20;78.60
13721;DHT22;6932;51.438;5.470;2023-04-24T11:19:21;17.20;78.20
13721;DHT22;6932;51.438;5.470;2023-04-24T11:22:02;17.30;78.20
13721;DHT22;6932;51.438;5.470;2023-04-24T11:30:52;17.30;77.20
13721;DHT22;6932;51.438;5.470;2023-04-24T11:33:20;17.30;76.80
13721;DHT22;6932;51.438;5.470;2023-04-24T11:35:46;17.30;77.10
13721;DHT22;6932;51.438;5.470;2023-04-24T11:38:14;17.30;76.40
13721;DHT22;6932;51.438;5.470;2023-04-24T11:40:40;17.30;76.30
13721;DHT22;6932;51.438;5.470;2023-04-24T11:43:06;17.40;76.40
13721;DHT22;6932;51.438;5.470;2023-04-24T11:45:32;17.30;76.20
13721;DHT22;6932;51.438;5.470;2023-04-24T11:55:29;17.40;76.00
13721;DHT22;6932;51.438;5.470;2023-04-24T11:57:57;17.40;75.80
13721;DHT22;6932;51.438;5.470;2023-04-24T12:00:31;17.40;75.80
13721;DHT22;6932;51.438;5.470;2023-04-24T12:05:31;17.40;75.30
13721;DHT22;6932;51.438;5.470;2023-04-24T12:07:57;17.40;75.40
13721;DHT22;6932;51.438;5.470;2023-04-24T12:10:24;17.40;75.30
13721;DHT22;6932;51.438;5.470;2023-04-24T12:12:52;17.40;75.30
13721;DHT22;6932;51.438;5.470;2023-04-24T12:50:44;17.70;74.40
13721;DHT22;6932;51.438;5.470;2023-04-24T12:53:10;17.80;74.00
13721;DHT22;6932;51.438;5.470;2023-04-24T12:55:37;17.80;74.00
13721;DHT22;6932;51.438;5.470;2023-04-24T12:58:02;17.80;73.80
13721;DHT22;6932;51.438;5.470;2023-04-24T13:00:28;17.80;73.50
13721;DHT22;6932;51.438;5.470;2023-04-24T13:02:55;17.90;73.30
13721;DHT22;6932;51.438;5.470;2023-04-24T13:05:21;17.90;73.10
13721;DHT22;6932;51.438;5.470;2023-04-24T13:07:46;17.90;73.00
13721;DHT22;6932;51.438;5.470;2023-04-24T13:10:12;18.00;72.90
13721;DHT22;6932;51.438;5.470;2023-04-24T13:12:38;18.00;72.90
13721;DHT22;6932;51.438;5.470;2023-04-24T13:15:05;18.00;72.80
13721;DHT22;6932;51.438;5.470;2023-04-24T13:17:31;18.00;72.70
13721;DHT22;6932;51.438;5.470;2023-04-24T13:19:58;18.00;72.60
13721;DHT22;6932;51.438;5.470;2023-04-24T13:22:24;18.00;72.60
13721;DHT22;6932;51.438;5.470;2023-04-24T13:28:31;18.10;72.60
13721;DHT22;6932;51.438;5.470;2023-04-24T13:30:57;18.10;72.50
13721;DHT22;6932;51.438;5.470;2023-04-24T13:33:22;18.10;72.40
13721;DHT22;6932;51.438;5.470;2023-04-24T13:35:48;18.10;72.50
13721;DHT22;6932;51.438;5.470;2023-04-24T13:38:14;18.10;72.60
13721;DHT22;6932;51.438;5.470;2023-04-24T13:40:40;18.10;72.50
13721;DHT22;6932;51.438;5.470;2023-04-24T13:43:05;18.10;73.30
13721;DHT22;6932;51.438;5.470;2023-04-24T13:45:31;18.00;73.80
13721;DHT22;6932;51.438;5.470;2023-04-24T13:47:57;18.00;74.10
13721;DHT22;6932;51.438;5.470;2023-04-24T13:50:23;18.00;74.20
13721;DHT22;6932;51.438;5.470;2023-04-24T13:52:48;17.90;74.50
13721;DHT22;6932;51.438;5.470;2023-04-24T13:55:14;17.90;74.70
13721;DHT22;6932;51.438;5.470;2023-04-24T13:57:40;17.80;74.90
13721;DHT22;6932;51.438;5.470;2023-04-24T14:00:06;17.80;75.90
13721;DHT22;6932;51.438;5.470;2023-04-24T14:02:35;17.70;75.50
13721;DHT22;6932;51.438;5.470;2023-04-24T14:05:02;17.70;75.70
13721;DHT22;6932;51.438;5.470;2023-04-24T14:07:28;17.70;75.80
13721;DHT22;6932;51.438;5.470;2023-04-24T14:09:54;17.70;75.50
13721;DHT22;6932;51.438;5.470;2023-04-24T14:12:20;17.60;75.10
13721;DHT22;6932;51.438;5.470;2023-04-24T14:14:46;17.60;75.10
13721;DHT22;6932;51.438;5.470;2023-04-24T14:17:13;17.60;75.00
13721;DHT22;6932;51.438;5.470;2023-04-24T14:19:39;17.60;75.00
13721;DHT22;6932;51.438;5.470;2023-04-24T14:22:05;17.60;75.00
13721;DHT22;6932;51.438;5.470;2023-04-24T14:24:31;17.60;74.90
13721;DHT22;6932;51.438;5.470;2023-04-24T14:26:57;17.60;75.00
13721;DHT22;6932;51.438;5.470;2023-04-24T14:29:23;17.70;75.00
13721;DHT22;6932;51.438;5.470;2023-04-24T14:31:49;17.70;75.50
13721;DHT22;6932;51.438;5.470;2023-04-24T14:34:15;17.70;75.80
13721;DHT22;6932;51.438;5.470;2023-04-24T14:36:41;17.70;75.50
13721;DHT22;6932;51.438;5.470;2023-04-24T14:39:07;17.70;75.30
13721;DHT22;6932;51.438;5.470;2023-04-24T14:41:33;17.70;75.00
13721;DHT22;6932;51.438;5.470;2023-04-24T14:44:01;17.60;74.60
13721;DHT22;6932;51.438;5.470;2023-04-24T14:46:28;17.60;74.50
13721;DHT22;6932;51.438;5.470;2023-04-24T14:48:56;17.60;74.20
13721;DHT22;6932;51.438;5.470;2023-04-24T14:51:23;17.60;75.20
13721;DHT22;6932;51.438;5.470;2023-04-24T14:53:49;17.50;74.10
13721;DHT22;6932;51.438;5.470;2023-04-24T14:56:15;17.50;73.90
13721;DHT22;6932;51.438;5.470;2023-04-24T14:58:41;17.50;73.70
13721;DHT22;6932;51.438;5.470;2023-04-24T15:04:56;17.50;73.20
13721;DHT22;6932;51.438;5.470;2023-04-24T15:07:22;17.50;72.60
13721;DHT22;6932;51.438;5.470;2023-04-24T15:09:48;17.50;72.50
13721;DHT22;6932;51.438;5.470;2023-04-24T15:12:14;17.50;72.20
13721;DHT22;6932;51.438;5.470;2023-04-24T15:14:39;17.50;72.20
13721;DHT22;6932;51.438;5.470;2023-04-24T15:17:05;17.60;72.10
13721;DHT22;6932;51.438;5.470;2023-04-24T15:19:31;17.60;72.00
13721;DHT22;6932;51.438;5.470;2023-04-24T15:21:56;17.60;71.70
13721;DHT22;6932;51.438;5.470;2023-04-24T15:39:15;17.70;71.10
13721;DHT22;6932;51.438;5.470;2023-04-24T15:41:41;17.80;71.40
13721;DHT22;6932;51.438;5.470;2023-04-24T15:44:07;17.80;70.70
13721;DHT22;6932;51.438;5.470;2023-04-24T15:46:34;17.70;70.70
13721;DHT22;6932;51.438;5.470;2023-04-24T15:49:01;17.80;70.30
13721;DHT22;6932;51.438;5.470;2023-04-24T15:51:26;17.80;70.30
13721;DHT22;6932;51.438;5.470;2023-04-24T15:53:52;17.80;70.10
13721;DHT22;6932;51.438;5.470;2023-04-24T15:56:18;17.90;70.10
13721;DHT22;6932;51.438;5.470;2023-04-24T16:02:12;17.90;70.10
13721;DHT22;6932;51.438;5.470;2023-04-24T16:04:47;17.90;69.80
13721;DHT22;6932;51.438;5.470;2023-04-24T16:07:14;17.90;69.80
13721;DHT22;6932;51.438;5.470;2023-04-24T16:09:40;17.90;69.90
13721;DHT22;6932;51.438;5.470;2023-04-24T16:12:06;17.90;69.90
13721;DHT22;6932;51.438;5.470;2023-04-24T16:14:33;17.90;69.80
13721;DHT22;6932;51.438;5.470;2023-04-24T16:16:59;18.00;69.50
13721;DHT22;6932;51.438;5.470;2023-04-24T16:19:26;17.90;69.00
13721;DHT22;6932;51.438;5.470;2023-04-24T16:21:52;17.90;68.80
13721;DHT22;6932;51.438;5.470;2023-04-24T16:24:21;17.90;69.00
13721;DHT22;6932;51.438;5.470;2023-04-24T16:26:48;17.90;69.80
13721;DHT22;6932;51.438;5.470;2023-04-24T16:29:15;18.00;69.60
13721;DHT22;6932;51.438;5.470;2023-04-24T16:31:41;17.90;69.70
13721;DHT22;6932;51.438;5.470;2023-04-24T16:34:07;17.90;69.80
13721;DHT22;6932;51.438;5.470;2023-04-24T16:36:34;17.90;69.80
13721;DHT22;6932;51.438;5.470;2023-04-24T16:39:01;17.90;69.80
13721;DHT22;6932;51.438;5.470;2023-04-24T16:41:29;18.00;70.10
13721;DHT22;6932;51.438;5.470;2023-04-24T16:43:55;17.90;70.00
13721;DHT22;6932;51.438;5.470;2023-04-24T16:46:21;17.90;70.20
13721;DHT22;6932;51.438;5.470;2023-04-24T16:48:48;17.90;70.30
13721;DHT22;6932;51.438;5.470;2023-04-24T16:51:13;17.90;70.30
13721;DHT22;6932;51.438;5.470;2023-04-24T16:53:39;17.90;70.30
13721;DHT22;6932;51.438;5.470;2023-04-24T16:59:46;17.80;70.30
13721;DHT22;6932;51.438;5.470;2023-04-24T17:02:11;17.90;70.30
13721;DHT22;6932;51.438;5.470;2023-04-24T17:04:37;17.70;70.40
13721;DHT22;6932;51.438;5.470;2023-04-24T17:07:03;17.70;70.40
13721;DHT22;6932;51.438;5.470;2023-04-24T17:09:29;17.70;70.30
13721;DHT22;6932;51.438;5.470;2023-04-24T17:11:55;17.70;70.40